THY3YL LIBD-LTFM
Flight info
| Callsign | THY3YL |
|---|---|
| Flight time | N/A |
| Altitude | 35000 |
| Route | VURKE DCT PAPIZ DCT PINDO UM603 PEREN UN644 DIGTI UT162 DRAMO |
| Aircraft | A321/M-SDE3FGHIRWY/LB1 |
Departure
| Time | 2026-05-04 20:27 |
|---|---|
| Airport | Bari Karol Wojtyła International Airport (LIBD) |
Arrival
| Time | N/A |
|---|---|
| Airport | İstanbul Airport (LTFM) |
| Time | Latitude | Longitude | Altitude | Speed | Heading |
|---|---|---|---|---|---|
| 2026-05-04 20:05 | 41.13514 | 16.76292 | 137 ft | 0 kts | 159° |
| 2026-05-04 20:16 | 41.13517 | 16.76291 | 136 ft | 3 kts | 160° |
| 2026-05-04 20:16 | 41.13542 | 16.76282 | 136 ft | 4 kts | 180° |
| 2026-05-04 20:16 | 41.13568 | 16.76288 | 136 ft | 4 kts | 205° |
| 2026-05-04 20:17 | 41.13589 | 16.76307 | 136 ft | 4 kts | 231° |
| 2026-05-04 20:17 | 41.13601 | 16.76333 | 136 ft | 1 kts | 249° |
| 2026-05-04 20:19 | 41.13598 | 16.76320 | 136 ft | 3 kts | 249° |
| 2026-05-04 20:19 | 41.13587 | 16.76281 | 136 ft | 6 kts | 249° |
| 2026-05-04 20:19 | 41.13569 | 16.76219 | 136 ft | 9 kts | 249° |
| 2026-05-04 20:20 | 41.13554 | 16.76142 | 136 ft | 8 kts | 274° |
| 2026-05-04 20:20 | 41.13596 | 16.76071 | 136 ft | 12 kts | 320° |
| 2026-05-04 20:20 | 41.13636 | 16.76002 | 136 ft | 10 kts | 286° |
| 2026-05-04 20:20 | 41.13622 | 16.75906 | 137 ft | 12 kts | 249° |
| 2026-05-04 20:21 | 41.13591 | 16.75798 | 138 ft | 13 kts | 249° |
| 2026-05-04 20:21 | 41.13555 | 16.75673 | 138 ft | 16 kts | 249° |
| 2026-05-04 20:21 | 41.13475 | 16.75391 | 142 ft | 17 kts | 249° |
| 2026-05-04 20:22 | 41.13430 | 16.75232 | 143 ft | 18 kts | 249° |
| 2026-05-04 20:22 | 41.13393 | 16.75101 | 147 ft | 13 kts | 249° |
| 2026-05-04 20:22 | 41.13366 | 16.75007 | 148 ft | 10 kts | 249° |
| 2026-05-04 20:22 | 41.13350 | 16.74950 | 148 ft | 9 kts | 249° |
| 2026-05-04 20:23 | 41.13329 | 16.74874 | 148 ft | 8 kts | 249° |
| 2026-05-04 20:23 | 41.13308 | 16.74803 | 148 ft | 9 kts | 249° |
| 2026-05-04 20:23 | 41.13272 | 16.74675 | 152 ft | 14 kts | 249° |
| 2026-05-04 20:23 | 41.13232 | 16.74530 | 152 ft | 18 kts | 250° |
| 2026-05-04 20:24 | 41.13201 | 16.74420 | 154 ft | 0 kts | 248° |
| 2026-05-04 20:24 | 41.13200 | 16.74418 | 154 ft | 1 kts | 248° |
| 2026-05-04 20:24 | 41.13197 | 16.74406 | 154 ft | 3 kts | 248° |
| 2026-05-04 20:24 | 41.13181 | 16.74354 | 154 ft | 9 kts | 249° |
| 2026-05-04 20:25 | 41.13170 | 16.74247 | 152 ft | 14 kts | 285° |
| 2026-05-04 20:25 | 41.13225 | 16.74132 | 146 ft | 13 kts | 320° |
| 2026-05-04 20:25 | 41.13294 | 16.74124 | 146 ft | 9 kts | 31° |
| 2026-05-04 20:25 | 41.13325 | 16.74195 | 147 ft | 6 kts | 69° |
| 2026-05-04 20:26 | 41.13334 | 16.74228 | 147 ft | 5 kts | 70° |
| 2026-05-04 20:26 | 41.13417 | 16.74523 | 146 ft | 74 kts | 69° |
| 2026-05-04 20:26 | 41.13688 | 16.75482 | 140 ft | 144 kts | 69° |
| 2026-05-04 20:26 | 41.14093 | 16.76923 | 317 ft | 179 kts | 70° |
| 2026-05-04 20:27 | 41.14509 | 16.78480 | 1071 ft | 178 kts | 70° |
| 2026-05-04 20:27 | 41.14935 | 16.80014 | 1884 ft | 176 kts | 70° |
| 2026-05-04 20:27 | 41.15357 | 16.81516 | 2610 ft | 176 kts | 70° |
| 2026-05-04 20:27 | 41.15810 | 16.83117 | 2909 ft | 198 kts | 69° |
| 2026-05-04 20:28 | 41.16323 | 16.84920 | 3188 ft | 219 kts | 69° |
| 2026-05-04 20:28 | 41.16895 | 16.86926 | 3442 ft | 246 kts | 69° |
| 2026-05-04 20:28 | 41.17516 | 16.89094 | 4149 ft | 254 kts | 69° |
| 2026-05-04 20:28 | 41.18148 | 16.91306 | 4971 ft | 258 kts | 69° |
| 2026-05-04 20:29 | 41.18692 | 16.93592 | 5782 ft | 263 kts | 82° |
| 2026-05-04 20:29 | 41.18750 | 16.96074 | 6423 ft | 274 kts | 90° |
| 2026-05-04 20:29 | 41.18713 | 16.98629 | 7210 ft | 279 kts | 91° |
| 2026-05-04 20:29 | 41.18666 | 17.01221 | 8016 ft | 283 kts | 91° |
| 2026-05-04 20:30 | 41.18617 | 17.03847 | 8807 ft | 286 kts | 91° |
| 2026-05-04 20:30 | 41.18568 | 17.06505 | 9592 ft | 290 kts | 91° |
| 2026-05-04 20:30 | 41.18520 | 17.09196 | 10357 ft | 294 kts | 90° |
| 2026-05-04 20:30 | 41.18473 | 17.12006 | 10673 ft | 316 kts | 90° |
| 2026-05-04 20:31 | 41.18431 | 17.15033 | 10869 ft | 340 kts | 88° |
| 2026-05-04 20:31 | 41.18650 | 17.18205 | 11079 ft | 359 kts | 81° |
| 2026-05-04 20:31 | 41.19001 | 17.21521 | 11659 ft | 366 kts | 81° |
| 2026-05-04 20:31 | 41.19350 | 17.24882 | 12369 ft | 369 kts | 81° |
| 2026-05-04 20:32 | 41.19697 | 17.28275 | 13083 ft | 373 kts | 81° |
| 2026-05-04 20:32 | 41.20045 | 17.31702 | 13766 ft | 376 kts | 81° |
| 2026-05-04 20:32 | 41.20395 | 17.35162 | 14436 ft | 380 kts | 81° |
| 2026-05-04 20:32 | 41.20748 | 17.38659 | 15094 ft | 384 kts | 81° |
| 2026-05-04 20:33 | 41.21104 | 17.42188 | 15751 ft | 388 kts | 81° |
| 2026-05-04 20:33 | 41.21462 | 17.45748 | 16397 ft | 391 kts | 81° |
| 2026-05-04 20:33 | 41.21824 | 17.49348 | 17029 ft | 395 kts | 81° |
| 2026-05-04 20:33 | 41.22189 | 17.52980 | 17638 ft | 399 kts | 81° |
| 2026-05-04 20:34 | 41.22557 | 17.56650 | 18244 ft | 402 kts | 81° |
| 2026-05-04 20:34 | 41.22926 | 17.60346 | 18846 ft | 406 kts | 81° |
| 2026-05-04 20:34 | 41.23296 | 17.64081 | 19407 ft | 410 kts | 81° |
| 2026-05-04 20:34 | 41.23664 | 17.67803 | 19942 ft | 414 kts | 81° |
| 2026-05-04 20:35 | 41.24035 | 17.71609 | 20468 ft | 418 kts | 81° |
| 2026-05-04 20:35 | 41.24407 | 17.75452 | 20976 ft | 421 kts | 81° |
| 2026-05-04 20:35 | 41.24782 | 17.79330 | 21465 ft | 425 kts | 81° |
| 2026-05-04 20:35 | 41.25161 | 17.83239 | 21942 ft | 428 kts | 81° |
| 2026-05-04 20:36 | 41.25541 | 17.87175 | 22407 ft | 431 kts | 81° |
| 2026-05-04 20:36 | 41.25924 | 17.91146 | 22855 ft | 435 kts | 81° |
| 2026-05-04 20:36 | 41.26306 | 17.95144 | 23285 ft | 438 kts | 81° |
| 2026-05-04 20:36 | 41.26692 | 17.99175 | 23710 ft | 441 kts | 81° |
| 2026-05-04 20:37 | 41.27041 | 18.03240 | 24117 ft | 445 kts | 85° |
| 2026-05-04 20:37 | 41.26951 | 18.07366 | 24538 ft | 450 kts | 95° |
| 2026-05-04 20:37 | 41.26323 | 18.11401 | 24941 ft | 455 kts | 105° |
| 2026-05-04 20:37 | 41.25150 | 18.15320 | 25330 ft | 459 kts | 116° |
| 2026-05-04 20:38 | 41.23555 | 18.19012 | 25709 ft | 463 kts | 119° |
| 2026-05-04 20:38 | 41.21907 | 18.22701 | 26080 ft | 466 kts | 119° |
| 2026-05-04 20:38 | 41.20249 | 18.26411 | 26433 ft | 468 kts | 119° |
| 2026-05-04 20:38 | 41.18581 | 18.30144 | 26778 ft | 471 kts | 119° |
| 2026-05-04 20:39 | 41.16905 | 18.33895 | 27123 ft | 474 kts | 119° |
| 2026-05-04 20:39 | 41.15217 | 18.37661 | 27460 ft | 476 kts | 120° |
| 2026-05-04 20:39 | 41.13512 | 18.41453 | 27807 ft | 479 kts | 120° |
| 2026-05-04 20:39 | 41.11800 | 18.45259 | 28138 ft | 482 kts | 120° |
| 2026-05-04 20:40 | 41.10100 | 18.49032 | 28480 ft | 484 kts | 120° |
| 2026-05-04 20:40 | 41.08371 | 18.52863 | 28924 ft | 484 kts | 120° |
| 2026-05-04 20:40 | 41.06649 | 18.56682 | 29381 ft | 483 kts | 120° |
| 2026-05-04 20:40 | 41.04927 | 18.60496 | 29817 ft | 482 kts | 120° |
| 2026-05-04 20:41 | 41.03207 | 18.64298 | 30244 ft | 481 kts | 120° |
| 2026-05-04 20:41 | 41.01484 | 18.68097 | 30669 ft | 481 kts | 120° |
| 2026-05-04 20:41 | 40.99761 | 18.71890 | 31096 ft | 480 kts | 120° |